DLH224 KSAN-EDDM
Flight info
| Callsign | DLH224 |
|---|---|
| Flight time | N/A |
| Altitude | 37000 |
| Route | ZZOOO4 TGOLD DCT PXR J18 ABQ DCT ICT DCT KK54G DCT KG63K DCT GIJ DCT SVM Q907 SIKBO Q905 IPTOS Q921 IMORI DCT KITOP DCT BAREE N699A NEEKO/M085F370 DCT 54N050W 55N040W 56N030W 56N020W DCT RESNO DCT NETKI/N0488F370 DCT MORAG DCT NUCHU L607 BIG UL9 KONAN DCT KOK DCT REMBA DCT SPI DCT MOVUM T109 HAREM T104 ROKIL ROKIL1B |
| Aircraft | A359/H-SDE2E3GHIJ3J4J5LM1ORWXY/LB1D1 |
Departure
| Time | 2026-05-07 05:06 |
|---|---|
| Airport | San Diego International Airport (KSAN) |
Arrival
| Time | N/A |
|---|---|
| Airport | Munich Airport (EDDM) |
| Time | Latitude | Longitude | Altitude | Speed | Heading |
|---|---|---|---|---|---|
| 2026-05-07 04:38 | 32.73259 | -117.20541 | 32 ft | 0 kts | 167° |
| 2026-05-07 04:48 | 32.73266 | -117.20543 | 28 ft | 0 kts | 164° |
| 2026-05-07 04:48 | 32.73265 | -117.20543 | 26 ft | 0 kts | 164° |
| 2026-05-07 04:49 | 32.73267 | -117.20543 | 26 ft | 2 kts | 163° |
| 2026-05-07 04:49 | 32.73282 | -117.20549 | 32 ft | 2 kts | 162° |
| 2026-05-07 04:50 | 32.73298 | -117.20556 | 30 ft | 2 kts | 158° |
| 2026-05-07 04:50 | 32.73308 | -117.20561 | 31 ft | 0 kts | 153° |
| 2026-05-07 04:50 | 32.73298 | -117.20557 | 30 ft | 2 kts | 162° |
| 2026-05-07 04:51 | 32.73295 | -117.20557 | 31 ft | 0 kts | 165° |
| 2026-05-07 04:52 | 32.73291 | -117.20555 | 30 ft | 1 kts | 167° |
| 2026-05-07 04:54 | 32.73297 | -117.20557 | 30 ft | 2 kts | 164° |
| 2026-05-07 04:54 | 32.73313 | -117.20563 | 31 ft | 2 kts | 158° |
| 2026-05-07 04:54 | 32.73327 | -117.20573 | 30 ft | 2 kts | 122° |
| 2026-05-07 04:54 | 32.73328 | -117.20590 | 29 ft | 1 kts | 57° |
| 2026-05-07 04:55 | 32.73326 | -117.20593 | 28 ft | 0 kts | 55° |
| 2026-05-07 04:58 | 32.73326 | -117.20592 | 28 ft | 0 kts | 55° |
| 2026-05-07 04:58 | 32.73339 | -117.20579 | 31 ft | 6 kts | 39° |
| 2026-05-07 04:58 | 32.73402 | -117.20558 | 30 ft | 11 kts | 5° |
| 2026-05-07 04:58 | 32.73483 | -117.20537 | 28 ft | 13 kts | 31° |
| 2026-05-07 04:59 | 32.73548 | -117.20457 | 27 ft | 13 kts | 53° |
| 2026-05-07 04:59 | 32.73578 | -117.20419 | 27 ft | 0 kts | 42° |
| 2026-05-07 04:59 | 32.73581 | -117.20413 | 27 ft | 4 kts | 54° |
| 2026-05-07 04:59 | 32.73585 | -117.20358 | 29 ft | 7 kts | 95° |
| 2026-05-07 05:00 | 32.73574 | -117.20295 | 36 ft | 11 kts | 105° |
| 2026-05-07 05:00 | 32.73542 | -117.20163 | 32 ft | 20 kts | 106° |
| 2026-05-07 05:00 | 32.73502 | -117.19999 | 32 ft | 21 kts | 106° |
| 2026-05-07 05:00 | 32.73464 | -117.19837 | 34 ft | 21 kts | 105° |
| 2026-05-07 05:01 | 32.73423 | -117.19670 | 32 ft | 22 kts | 106° |
| 2026-05-07 05:01 | 32.73382 | -117.19499 | 33 ft | 22 kts | 106° |
| 2026-05-07 05:01 | 32.73338 | -117.19320 | 30 ft | 24 kts | 106° |
| 2026-05-07 05:01 | 32.73292 | -117.19132 | 31 ft | 24 kts | 106° |
| 2026-05-07 05:02 | 32.73246 | -117.18946 | 32 ft | 23 kts | 106° |
| 2026-05-07 05:02 | 32.73202 | -117.18763 | 34 ft | 23 kts | 106° |
| 2026-05-07 05:02 | 32.73157 | -117.18581 | 31 ft | 24 kts | 106° |
| 2026-05-07 05:02 | 32.73110 | -117.18384 | 30 ft | 25 kts | 106° |
| 2026-05-07 05:03 | 32.73062 | -117.18182 | 28 ft | 26 kts | 105° |
| 2026-05-07 05:03 | 32.73011 | -117.17973 | 31 ft | 27 kts | 106° |
| 2026-05-07 05:03 | 32.72967 | -117.17794 | 27 ft | 14 kts | 106° |
| 2026-05-07 05:03 | 32.72952 | -117.17725 | 27 ft | 7 kts | 99° |
| 2026-05-07 05:04 | 32.72951 | -117.17711 | 26 ft | 0 kts | 94° |
| 2026-05-07 05:04 | 32.72951 | -117.17695 | 26 ft | 7 kts | 87° |
| 2026-05-07 05:04 | 32.72969 | -117.17611 | 28 ft | 11 kts | 62° |
| 2026-05-07 05:04 | 32.73017 | -117.17594 | 28 ft | 6 kts | 322° |
| 2026-05-07 05:05 | 32.73037 | -117.17660 | 27 ft | 18 kts | 286° |
| 2026-05-07 05:05 | 32.73125 | -117.18018 | 30 ft | 75 kts | 285° |
| 2026-05-07 05:05 | 32.73319 | -117.18816 | 30 ft | 126 kts | 286° |
| 2026-05-07 05:05 | 32.73601 | -117.19971 | 215 ft | 150 kts | 287° |
| 2026-05-07 05:06 | 32.73881 | -117.21156 | 756 ft | 150 kts | 286° |
| 2026-05-07 05:06 | 32.74169 | -117.22363 | 1212 ft | 158 kts | 287° |
| 2026-05-07 05:06 | 32.74489 | -117.23680 | 1423 ft | 171 kts | 286° |
| 2026-05-07 05:06 | 32.74830 | -117.25101 | 1608 ft | 189 kts | 286° |
| 2026-05-07 05:07 | 32.74970 | -117.26750 | 1730 ft | 216 kts | 262° |
| 2026-05-07 05:07 | 32.74271 | -117.28380 | 2118 ft | 230 kts | 224° |
| 2026-05-07 05:07 | 32.72839 | -117.29215 | 2720 ft | 238 kts | 188° |
| 2026-05-07 05:07 | 32.71204 | -117.28917 | 3337 ft | 242 kts | 159° |
| 2026-05-07 05:08 | 32.69660 | -117.28108 | 3934 ft | 245 kts | 155° |
| 2026-05-07 05:08 | 32.68098 | -117.27241 | 4523 ft | 249 kts | 155° |
| 2026-05-07 05:08 | 32.66512 | -117.26380 | 5136 ft | 252 kts | 156° |
| 2026-05-07 05:08 | 32.64914 | -117.25500 | 5732 ft | 255 kts | 152° |
| 2026-05-07 05:09 | 32.63558 | -117.24191 | 6295 ft | 257 kts | 124° |
| 2026-05-07 05:09 | 32.62853 | -117.22232 | 6705 ft | 265 kts | 97° |
| 2026-05-07 05:09 | 32.62634 | -117.20023 | 7185 ft | 273 kts | 92° |
| 2026-05-07 05:09 | 32.62471 | -117.17766 | 7819 ft | 276 kts | 93° |
| 2026-05-07 05:10 | 32.62291 | -117.15482 | 8522 ft | 279 kts | 94° |
| 2026-05-07 05:10 | 32.62096 | -117.13181 | 9221 ft | 282 kts | 94° |
| 2026-05-07 05:10 | 32.61993 | -117.10847 | 9898 ft | 284 kts | 84° |
| 2026-05-07 05:10 | 32.62432 | -117.08555 | 10449 ft | 290 kts | 69° |
| 2026-05-07 05:11 | 32.63172 | -117.06255 | 10728 ft | 307 kts | 67° |
| 2026-05-07 05:11 | 32.63990 | -117.03841 | 10982 ft | 324 kts | 67° |
| 2026-05-07 05:11 | 32.64835 | -117.01318 | 11239 ft | 341 kts | 68° |
| 2026-05-07 05:11 | 32.65722 | -116.98637 | 11490 ft | 356 kts | 68° |
| 2026-05-07 05:12 | 32.66512 | -116.95786 | 11742 ft | 371 kts | 78° |
| 2026-05-07 05:12 | 32.66757 | -116.92712 | 12199 ft | 378 kts | 86° |
| 2026-05-07 05:12 | 32.66824 | -116.89568 | 12750 ft | 383 kts | 87° |
| 2026-05-07 05:12 | 32.66882 | -116.86395 | 13323 ft | 386 kts | 87° |
| 2026-05-07 05:13 | 32.66946 | -116.83202 | 13876 ft | 389 kts | 87° |
| 2026-05-07 05:13 | 32.67016 | -116.79957 | 14394 ft | 393 kts | 87° |
| 2026-05-07 05:13 | 32.67088 | -116.76706 | 14906 ft | 396 kts | 87° |
| 2026-05-07 05:13 | 32.67152 | -116.73411 | 15447 ft | 399 kts | 88° |
| 2026-05-07 05:14 | 32.67106 | -116.70104 | 16019 ft | 402 kts | 90° |
| 2026-05-07 05:14 | 32.67028 | -116.66808 | 16548 ft | 406 kts | 90° |
| 2026-05-07 05:14 | 32.66956 | -116.63445 | 17047 ft | 409 kts | 90° |
| 2026-05-07 05:14 | 32.66891 | -116.60056 | 17599 ft | 412 kts | 90° |
| 2026-05-07 05:15 | 32.66829 | -116.56633 | 18140 ft | 416 kts | 90° |
| 2026-05-07 05:15 | 32.66769 | -116.53194 | 18628 ft | 419 kts | 89° |
| 2026-05-07 05:15 | 32.66709 | -116.49701 | 19052 ft | 423 kts | 90° |
| 2026-05-07 05:15 | 32.66647 | -116.46189 | 19463 ft | 428 kts | 89° |
| 2026-05-07 05:16 | 32.66632 | -116.42647 | 19931 ft | 431 kts | 86° |
| 2026-05-07 05:16 | 32.66872 | -116.39083 | 20380 ft | 434 kts | 82° |
| 2026-05-07 05:16 | 32.67196 | -116.35561 | 20818 ft | 438 kts | 82° |
| 2026-05-07 05:16 | 32.67538 | -116.31901 | 21282 ft | 442 kts | 82° |
| 2026-05-07 05:17 | 32.67873 | -116.28261 | 21768 ft | 445 kts | 82° |
| 2026-05-07 05:17 | 32.68204 | -116.24638 | 22211 ft | 450 kts | 82° |
| 2026-05-07 05:17 | 32.68540 | -116.20925 | 22661 ft | 453 kts | 82° |
| 2026-05-07 05:17 | 32.68876 | -116.17192 | 23118 ft | 457 kts | 82° |
| 2026-05-07 05:18 | 32.69213 | -116.13429 | 23606 ft | 461 kts | 82° |
| 2026-05-07 05:18 | 32.69553 | -116.09626 | 23975 ft | 465 kts | 82° |
| 2026-05-07 05:18 | 32.69893 | -116.05795 | 24330 ft | 469 kts | 82° |
| 2026-05-07 05:18 | 32.70235 | -116.01942 | 24684 ft | 472 kts | 82° |
| 2026-05-07 05:19 | 32.70595 | -115.98050 | 25084 ft | 475 kts | 82° |
| 2026-05-07 05:19 | 32.70959 | -115.94145 | 25449 ft | 478 kts | 82° |
| 2026-05-07 05:19 | 32.71325 | -115.90205 | 25809 ft | 481 kts | 82° |
| 2026-05-07 05:19 | 32.71691 | -115.86240 | 26144 ft | 485 kts | 82° |
| 2026-05-07 05:20 | 32.72058 | -115.82245 | 26526 ft | 488 kts | 82° |
| 2026-05-07 05:20 | 32.72426 | -115.78218 | 26848 ft | 492 kts | 83° |
| 2026-05-07 05:20 | 32.72794 | -115.74174 | 27182 ft | 495 kts | 83° |
| 2026-05-07 05:20 | 32.73166 | -115.70082 | 27514 ft | 499 kts | 83° |
| 2026-05-07 05:21 | 32.73536 | -115.65978 | 27899 ft | 501 kts | 83° |
| 2026-05-07 05:21 | 32.74277 | -115.57738 | 28511 ft | 508 kts | 83° |
| 2026-05-07 05:21 | 32.74651 | -115.53556 | 28813 ft | 510 kts | 83° |
| 2026-05-07 05:22 | 32.75020 | -115.49356 | 29173 ft | 512 kts | 83° |
| 2026-05-07 05:22 | 32.75187 | -115.45110 | 29453 ft | 516 kts | 88° |
| 2026-05-07 05:22 | 32.75237 | -115.40829 | 29719 ft | 519 kts | 88° |
| 2026-05-07 05:22 | 32.75295 | -115.36522 | 30063 ft | 520 kts | 88° |
| 2026-05-07 05:23 | 32.75370 | -115.32229 | 30502 ft | 518 kts | 88° |
| 2026-05-07 05:23 | 32.75455 | -115.27951 | 30864 ft | 517 kts | 88° |
| 2026-05-07 05:23 | 32.75545 | -115.23686 | 31191 ft | 517 kts | 88° |
| 2026-05-07 05:23 | 32.75637 | -115.19406 | 31527 ft | 517 kts | 88° |
| 2026-05-07 05:24 | 32.75729 | -115.15147 | 31934 ft | 514 kts | 88° |
| 2026-05-07 05:24 | 32.75820 | -115.10891 | 32260 ft | 514 kts | 88° |
| 2026-05-07 05:24 | 32.75910 | -115.06711 | 32542 ft | 514 kts | 88° |
| 2026-05-07 05:24 | 32.75999 | -115.02457 | 32824 ft | 514 kts | 88° |
| 2026-05-07 05:25 | 32.76070 | -114.98315 | 33128 ft | 483 kts | 84° |
| 2026-05-07 05:25 | 32.76138 | -114.94496 | 33921 ft | 449 kts | 84° |
| 2026-05-07 05:25 | 32.76210 | -114.90887 | 34468 ft | 426 kts | 84° |
| 2026-05-07 05:25 | 32.76286 | -114.87383 | 34673 ft | 423 kts | 84° |
| 2026-05-07 05:26 | 32.76363 | -114.83880 | 34747 ft | 427 kts | 84° |